createdAt,value
2018-12-08T00:00:42.373Z,6.60
2018-12-08T00:03:09.901Z,6.70
2018-12-08T00:05:37.380Z,6.70
2018-12-08T00:08:04.944Z,6.60
2018-12-08T00:10:32.404Z,6.70
2018-12-08T00:12:59.882Z,6.60
2018-12-08T00:15:27.448Z,6.70
2018-12-08T00:17:54.926Z,6.60
2018-12-08T00:20:22.385Z,6.60
2018-12-08T00:22:49.854Z,6.60
2018-12-08T00:25:17.326Z,6.70
2018-12-08T00:27:44.813Z,6.80
2018-12-08T00:30:24.246Z,6.90
2018-12-08T00:32:51.725Z,7.00
2018-12-08T00:35:19.296Z,7.00
2018-12-08T00:37:46.850Z,7.00
2018-12-08T00:40:14.322Z,7.00
2018-12-08T00:42:41.790Z,7.00
2018-12-08T00:45:09.307Z,7.00
2018-12-08T00:47:36.778Z,6.90
2018-12-08T00:50:04.411Z,6.90
2018-12-08T00:52:31.886Z,6.80
2018-12-08T00:54:59.337Z,6.70
2018-12-08T00:57:26.814Z,6.70
2018-12-08T00:59:54.401Z,6.60
2018-12-08T01:02:21.972Z,6.60
2018-12-08T01:04:49.445Z,6.60
2018-12-08T01:07:16.909Z,6.60
2018-12-08T01:09:44.878Z,6.50
2018-12-08T01:12:12.447Z,6.50
2018-12-08T01:14:40.140Z,6.50
2018-12-08T01:17:07.698Z,6.50
2018-12-08T01:19:35.214Z,6.50
2018-12-08T01:22:02.741Z,6.50
2018-12-08T01:24:30.210Z,6.40
2018-12-08T01:26:57.693Z,6.30
2018-12-08T01:29:25.165Z,6.20
2018-12-08T01:31:52.722Z,6.10
2018-12-08T01:34:20.194Z,6.00
2018-12-08T01:36:47.717Z,6.00
2018-12-08T01:39:15.205Z,5.90
2018-12-08T01:41:42.629Z,6.00
2018-12-08T01:44:10.184Z,6.00
2018-12-08T01:46:37.755Z,6.00
2018-12-08T01:49:05.329Z,6.10
2018-12-08T01:51:32.890Z,6.10
2018-12-08T01:54:00.385Z,6.10
2018-12-08T01:56:27.857Z,6.10
2018-12-08T01:58:55.304Z,6.10
2018-12-08T02:01:22.776Z,6.20
2018-12-08T02:03:50.270Z,6.20
2018-12-08T02:06:17.708Z,6.20
2018-12-08T02:08:45.187Z,6.20
2018-12-08T02:11:12.758Z,6.30
2018-12-08T02:13:40.217Z,6.30
2018-12-08T02:16:07.738Z,6.30
2018-12-08T02:18:35.285Z,6.40
2018-12-08T02:21:02.732Z,6.40
2018-12-08T02:23:30.190Z,6.40
2018-12-08T02:25:57.666Z,6.30
2018-12-08T02:28:25.132Z,6.40
2018-12-08T02:30:52.716Z,6.30
2018-12-08T02:33:20.197Z,6.30
2018-12-08T02:38:38.670Z,6.30
2018-12-08T02:41:06.110Z,6.30
2018-12-08T02:43:33.611Z,6.30
2018-12-08T02:46:01.100Z,6.30
2018-12-08T02:48:28.658Z,6.30
2018-12-08T02:50:56.118Z,6.30
2018-12-08T02:53:23.606Z,6.30
2018-12-08T02:55:51.072Z,6.30
2018-12-08T02:58:18.645Z,6.30
2018-12-08T03:00:46.111Z,6.30
2018-12-08T03:03:13.582Z,6.30
2018-12-08T03:05:41.246Z,6.40
2018-12-08T03:08:08.744Z,6.40
2018-12-08T03:10:36.312Z,6.40
2018-12-08T03:13:03.768Z,6.50
2018-12-08T03:15:31.225Z,6.60
2018-12-08T03:17:58.712Z,6.60
2018-12-08T03:20:26.156Z,6.60
2018-12-08T03:22:53.629Z,6.60
2018-12-08T03:25:21.101Z,6.60
2018-12-08T03:27:48.819Z,6.60
2018-12-08T03:30:16.236Z,6.60
2018-12-08T03:32:43.733Z,6.60
2018-12-08T03:35:11.196Z,6.60
2018-12-08T03:37:38.657Z,6.60
2018-12-08T03:40:06.136Z,6.50
2018-12-08T03:42:33.613Z,6.60
2018-12-08T03:45:01.073Z,6.60
2018-12-08T03:47:28.535Z,6.60
2018-12-08T03:49:56.026Z,6.60
2018-12-08T03:52:23.777Z,6.70
2018-12-08T03:54:51.245Z,6.70
2018-12-08T03:57:18.682Z,6.80
2018-12-08T03:59:46.130Z,6.80
2018-12-08T04:02:13.603Z,6.80
2018-12-08T04:04:41.054Z,6.90
2018-12-08T04:07:08.500Z,6.90
2018-12-08T04:09:35.997Z,6.90
2018-12-08T04:12:03.552Z,6.90
2018-12-08T04:14:31.021Z,7.00
2018-12-08T04:16:58.591Z,7.00
2018-12-08T04:19:26.061Z,7.00
2018-12-08T04:21:53.598Z,7.10
2018-12-08T04:24:21.109Z,7.10
2018-12-08T04:26:48.537Z,7.10
2018-12-08T04:29:16.040Z,7.20
2018-12-08T04:31:43.494Z,7.20
2018-12-08T04:34:10.952Z,7.20
2018-12-08T04:36:38.433Z,7.30
2018-12-08T04:39:06.419Z,7.30
2018-12-08T04:41:33.901Z,7.30
2018-12-08T04:44:01.373Z,7.30
2018-12-08T04:46:28.926Z,7.30
2018-12-08T04:48:56.392Z,7.20
2018-12-08T04:51:23.871Z,7.20
2018-12-08T04:53:51.318Z,7.10
2018-12-08T04:56:18.812Z,7.10
2018-12-08T04:58:46.278Z,7.10
2018-12-08T05:01:13.846Z,7.10
2018-12-08T05:03:41.314Z,7.00
2018-12-08T05:06:08.995Z,7.10
2018-12-08T05:08:36.561Z,7.10
2018-12-08T05:11:04.052Z,7.10
2018-12-08T05:13:31.518Z,7.20
2018-12-08T05:15:58.955Z,7.20
2018-12-08T05:18:26.408Z,7.20
2018-12-08T05:20:53.920Z,7.20
2018-12-08T05:23:21.519Z,7.20
2018-12-08T05:25:49.056Z,7.10
2018-12-08T05:28:16.532Z,7.10
2018-12-08T05:30:43.958Z,7.00
2018-12-08T05:33:11.433Z,7.00
2018-12-08T05:35:38.884Z,7.00
2018-12-08T05:38:06.374Z,7.00
2018-12-08T05:40:33.874Z,7.00
2018-12-08T05:43:01.450Z,7.00
2018-12-08T05:45:28.925Z,7.00
2018-12-08T05:47:56.386Z,7.00
2018-12-08T05:50:23.838Z,7.00
2018-12-08T05:52:51.322Z,6.90
2018-12-08T05:55:18.809Z,7.00
2018-12-08T05:57:46.257Z,7.00
2018-12-08T06:00:13.785Z,7.00
2018-12-08T06:02:41.235Z,7.00
2018-12-08T06:05:08.716Z,6.90
2018-12-08T06:07:36.150Z,7.00
2018-12-08T06:10:04.480Z,7.00
2018-12-08T06:12:31.910Z,7.00
2018-12-08T06:14:59.366Z,7.00
2018-12-08T06:17:26.844Z,7.00
2018-12-08T06:19:54.320Z,7.10
2018-12-08T06:22:21.977Z,7.00
2018-12-08T06:24:49.449Z,7.10
2018-12-08T06:27:17.136Z,7.10
2018-12-08T06:29:44.694Z,7.10
2018-12-08T06:32:12.178Z,7.10
2018-12-08T06:34:39.648Z,7.10
2018-12-08T06:37:07.117Z,7.10
2018-12-08T06:39:34.569Z,7.10
2018-12-08T06:42:02.147Z,7.10
2018-12-08T06:44:29.617Z,7.10
2018-12-08T06:46:57.086Z,7.20
2018-12-08T06:49:24.554Z,7.20
2018-12-08T06:51:52.137Z,7.20
2018-12-08T06:54:19.607Z,7.20
2018-12-08T06:56:47.105Z,7.20
2018-12-08T06:59:14.638Z,7.30
2018-12-08T07:01:42.211Z,7.30
2018-12-08T07:04:09.698Z,7.30
2018-12-08T07:06:37.269Z,7.30
2018-12-08T07:09:05.776Z,7.30
2018-12-08T07:11:33.233Z,7.30
2018-12-08T07:14:00.722Z,7.30
2018-12-08T07:16:28.253Z,7.30
2018-12-08T07:18:55.741Z,7.30
2018-12-08T07:21:23.290Z,7.30
2018-12-08T07:23:50.766Z,7.30
2018-12-08T07:26:18.237Z,7.20
2018-12-08T07:28:45.710Z,7.30
2018-12-08T07:31:13.170Z,7.20
2018-12-08T07:33:40.655Z,7.20
2018-12-08T07:36:08.307Z,7.20
2018-12-08T07:38:35.907Z,7.10
2018-12-08T07:43:54.588Z,7.10
2018-12-08T07:46:22.072Z,7.10
2018-12-08T07:48:49.514Z,7.10
2018-12-08T07:51:16.968Z,7.20
2018-12-08T07:53:44.468Z,7.10
2018-12-08T07:56:12.041Z,7.20
2018-12-08T07:58:39.520Z,7.10
2018-12-08T08:01:06.997Z,7.10
2018-12-08T08:03:34.460Z,7.10
2018-12-08T08:06:02.042Z,7.10
2018-12-08T08:08:29.485Z,7.10
2018-12-08T08:10:56.958Z,7.10
2018-12-08T08:13:24.394Z,7.10
2018-12-08T08:15:51.898Z,7.10
2018-12-08T08:18:19.366Z,7.10
2018-12-08T08:20:46.837Z,7.10
2018-12-08T08:23:14.306Z,7.10
2018-12-08T08:25:41.835Z,7.10
2018-12-08T08:28:09.293Z,7.10
2018-12-08T08:30:36.833Z,7.10
2018-12-08T08:33:04.285Z,7.10
2018-12-08T08:35:31.763Z,7.10
2018-12-08T08:37:59.206Z,7.10
2018-12-08T08:40:26.712Z,7.10
2018-12-08T08:42:54.176Z,7.20
2018-12-08T08:45:21.736Z,7.20
2018-12-08T08:47:49.192Z,7.20
2018-12-08T08:50:16.778Z,7.30
2018-12-08T08:52:44.218Z,7.30
2018-12-08T08:55:11.667Z,7.30
2018-12-08T08:57:39.186Z,7.40
2018-12-08T09:00:07.652Z,7.40
2018-12-08T09:02:35.159Z,7.40
2018-12-08T09:05:02.726Z,7.40
2018-12-08T09:07:30.166Z,7.40
2018-12-08T09:09:57.668Z,7.30
2018-12-08T09:12:25.236Z,7.30
2018-12-08T09:14:52.712Z,7.30
2018-12-08T09:17:20.182Z,7.30
2018-12-08T09:19:47.628Z,7.20
2018-12-08T09:22:15.111Z,7.20
2018-12-08T09:24:42.598Z,7.20
2018-12-08T09:27:10.050Z,7.20
2018-12-08T09:29:37.536Z,7.30
2018-12-08T09:32:05.094Z,7.20
2018-12-08T09:34:32.581Z,7.20
2018-12-08T09:37:00.134Z,7.30
2018-12-08T09:39:27.619Z,7.30
2018-12-08T09:41:55.060Z,7.30
2018-12-08T09:44:22.506Z,7.30
2018-12-08T09:46:50.018Z,7.40
2018-12-08T09:49:17.582Z,7.40
2018-12-08T09:51:45.154Z,7.40
2018-12-08T09:54:12.590Z,7.50
2018-12-08T09:56:40.111Z,7.50
2018-12-08T09:59:07.566Z,7.50
2018-12-08T10:01:35.035Z,7.40
2018-12-08T10:04:02.617Z,7.40
2018-12-08T10:06:30.208Z,7.30
2018-12-08T10:08:57.629Z,7.30
2018-12-08T10:11:25.129Z,7.30
2018-12-08T10:13:52.577Z,7.40
2018-12-08T10:16:20.201Z,7.40
2018-12-08T10:18:47.639Z,7.40
2018-12-08T10:21:15.197Z,7.40
2018-12-08T10:23:42.684Z,7.40
2018-12-08T10:26:10.153Z,7.40
2018-12-08T10:28:37.607Z,7.40
2018-12-08T10:31:05.073Z,7.40
2018-12-08T10:33:32.553Z,7.40
2018-12-08T10:36:00.132Z,7.40
2018-12-08T10:38:27.574Z,7.50
2018-12-08T10:40:55.053Z,7.50
2018-12-08T10:43:22.542Z,7.50
2018-12-08T10:45:50.093Z,7.50
2018-12-08T10:48:17.540Z,7.50
2018-12-08T10:50:45.506Z,7.50
2018-12-08T10:53:13.037Z,7.60
2018-12-08T10:55:40.484Z,7.60
2018-12-08T10:58:08.103Z,7.60
2018-12-08T11:00:41.206Z,7.70
2018-12-08T11:03:14.557Z,7.70
2018-12-08T11:05:42.042Z,7.70
2018-12-08T11:08:09.525Z,7.80
2018-12-08T11:10:36.996Z,7.90
2018-12-08T11:13:04.438Z,7.90
2018-12-08T11:15:31.962Z,8.00
2018-12-08T11:17:59.469Z,8.10
2018-12-08T11:20:27.052Z,8.10
2018-12-08T11:22:54.551Z,8.20
2018-12-08T11:25:22.010Z,8.20
2018-12-08T11:27:49.477Z,8.10
2018-12-08T11:30:16.942Z,8.20
2018-12-08T11:32:44.514Z,8.20
2018-12-08T11:35:12.086Z,8.20
2018-12-08T11:37:39.558Z,8.30
2018-12-08T11:40:07.142Z,8.30
2018-12-08T11:42:34.588Z,8.40
2018-12-08T11:45:02.229Z,8.50
2018-12-08T11:47:29.742Z,8.60
2018-12-08T11:49:57.178Z,8.70
2018-12-08T11:52:24.816Z,8.80
2018-12-08T11:54:52.251Z,8.80
2018-12-08T11:57:19.691Z,8.70
2018-12-08T11:59:47.194Z,8.70
2018-12-08T12:02:16.566Z,8.60
2018-12-08T12:04:44.094Z,8.70
2018-12-08T12:07:11.666Z,8.70
2018-12-08T12:09:39.110Z,8.70
2018-12-08T12:12:06.620Z,8.80
2018-12-08T12:14:43.342Z,8.80
2018-12-08T12:17:10.832Z,8.90
2018-12-08T12:19:38.419Z,9.00
2018-12-08T12:22:05.954Z,9.00
2018-12-08T12:24:33.445Z,9.10
2018-12-08T12:27:01.161Z,9.20
2018-12-08T12:29:28.725Z,9.20
2018-12-08T12:31:56.293Z,9.20
2018-12-08T12:34:23.844Z,9.10
2018-12-08T12:36:51.330Z,9.40
2018-12-08T12:39:18.800Z,9.80
2018-12-08T12:41:46.275Z,9.90
2018-12-08T12:44:13.709Z,9.90
2018-12-08T12:46:41.311Z,9.80
2018-12-08T12:49:08.762Z,9.90
2018-12-08T12:51:36.239Z,9.80
2018-12-08T12:54:03.811Z,9.70
2018-12-08T12:56:31.262Z,9.80
2018-12-08T12:58:58.764Z,10.20
2018-12-08T13:01:26.232Z,10.50
2018-12-08T13:03:53.803Z,10.30
2018-12-08T13:06:21.709Z,10.10
2018-12-08T13:08:49.478Z,10.00
2018-12-08T13:11:17.015Z,10.10
2018-12-08T13:13:44.490Z,10.00
2018-12-08T13:16:12.054Z,9.90
2018-12-08T13:18:39.549Z,9.70
2018-12-08T13:21:07.016Z,9.70
2018-12-08T13:23:34.571Z,9.70
2018-12-08T13:26:02.072Z,9.60
2018-12-08T13:28:29.558Z,9.60
2018-12-08T13:30:57.089Z,9.50
2018-12-08T13:33:24.560Z,9.40
2018-12-08T13:35:53.945Z,9.40
2018-12-08T13:38:23.354Z,9.30
2018-12-08T13:40:51.013Z,9.20
2018-12-08T13:43:18.450Z,9.20
2018-12-08T13:45:45.943Z,9.20
2018-12-08T13:48:14.932Z,9.20
2018-12-08T13:50:43.070Z,9.20
2018-12-08T13:53:10.520Z,9.20
2018-12-08T13:55:38.176Z,9.20
2018-12-08T13:58:05.702Z,9.20
2018-12-08T14:00:33.281Z,9.20
2018-12-08T14:03:00.758Z,9.10
2018-12-08T14:05:28.212Z,9.10
2018-12-08T14:07:55.642Z,9.00
2018-12-08T14:10:23.141Z,9.10
2018-12-08T14:12:50.604Z,9.00
2018-12-08T14:15:18.051Z,9.00
2018-12-08T14:17:45.523Z,9.00
2018-12-08T14:20:22.337Z,8.90
2018-12-08T14:22:49.818Z,8.80
2018-12-08T14:25:19.022Z,8.70
2018-12-08T14:27:46.480Z,8.80
2018-12-08T14:30:14.003Z,8.80
2018-12-08T14:32:41.442Z,8.80
2018-12-08T14:35:08.958Z,8.80
2018-12-08T14:37:36.397Z,8.80
2018-12-08T14:40:05.525Z,8.90
2018-12-08T14:42:33.080Z,8.90
2018-12-08T14:45:00.519Z,8.90
2018-12-08T14:47:27.975Z,9.00
2018-12-08T14:49:55.437Z,8.90
2018-12-08T14:52:22.889Z,8.90
2018-12-08T14:54:50.420Z,8.90
2018-12-08T14:57:17.876Z,8.90
2018-12-08T14:59:45.349Z,8.90
2018-12-08T15:02:12.823Z,9.00
2018-12-08T15:04:40.298Z,9.00
2018-12-08T15:07:07.819Z,9.00
2018-12-08T15:09:35.258Z,9.00
2018-12-08T15:12:02.710Z,9.00
2018-12-08T15:14:30.182Z,9.00
2018-12-08T15:16:57.661Z,9.00
2018-12-08T15:19:25.118Z,9.00
2018-12-08T15:21:52.678Z,9.00
2018-12-08T15:24:20.128Z,9.00
2018-12-08T15:26:47.562Z,9.00
2018-12-08T15:29:15.036Z,9.00
2018-12-08T15:31:42.561Z,9.00
2018-12-08T15:34:10.076Z,9.00
2018-12-08T15:36:37.532Z,9.00
2018-12-08T15:39:05.768Z,9.00
2018-12-08T15:41:33.234Z,9.10
2018-12-08T15:44:00.711Z,9.10
2018-12-08T15:46:28.171Z,9.20
2018-12-08T15:48:55.677Z,9.20
2018-12-08T15:51:23.189Z,9.20
2018-12-08T15:53:50.706Z,9.10
2018-12-08T15:56:18.174Z,9.00
2018-12-08T15:58:45.679Z,8.90
2018-12-08T16:01:13.205Z,8.90
2018-12-08T16:03:40.674Z,8.80
2018-12-08T16:06:08.234Z,8.70
2018-12-08T16:08:35.662Z,8.70
2018-12-08T16:11:03.194Z,8.70
2018-12-08T16:13:30.653Z,8.60
2018-12-08T16:15:58.142Z,8.60
2018-12-08T16:18:25.700Z,8.60
2018-12-08T16:20:53.144Z,8.60
2018-12-08T16:23:20.649Z,8.60
2018-12-08T16:25:48.106Z,8.60
2018-12-08T16:28:15.679Z,8.60
2018-12-08T16:30:43.163Z,8.70
2018-12-08T16:33:10.731Z,8.70
2018-12-08T16:35:38.309Z,8.70
2018-12-08T16:38:05.881Z,8.70
2018-12-08T16:40:33.335Z,8.70
2018-12-08T16:43:00.816Z,8.70
2018-12-08T16:45:28.316Z,8.80
2018-12-08T16:47:55.845Z,8.80
2018-12-08T16:50:23.311Z,8.90
2018-12-08T16:52:50.786Z,8.90
2018-12-08T16:55:18.369Z,8.90
2018-12-08T16:57:45.812Z,9.00
2018-12-08T17:00:13.408Z,9.00
2018-12-08T17:02:41.000Z,9.10
2018-12-08T17:05:08.601Z,9.10
2018-12-08T17:07:36.055Z,9.20
2018-12-08T17:10:04.523Z,9.30
2018-12-08T17:12:31.988Z,9.40
2018-12-08T17:14:59.555Z,9.40
2018-12-08T17:17:27.032Z,9.50
2018-12-08T17:19:54.951Z,9.60
2018-12-08T17:22:22.584Z,9.50
2018-12-08T17:24:50.156Z,9.50
2018-12-08T17:27:17.947Z,9.50
2018-12-08T17:29:45.465Z,9.50
2018-12-08T17:32:12.962Z,9.60
2018-12-08T17:34:40.426Z,9.60
2018-12-08T17:37:07.953Z,9.60
2018-12-08T17:39:35.484Z,9.60
2018-12-08T17:42:03.060Z,9.60
2018-12-08T17:44:30.505Z,9.70
2018-12-08T17:46:58.097Z,9.60
2018-12-08T17:49:25.584Z,9.60
2018-12-08T17:51:53.127Z,9.60
2018-12-08T17:54:20.683Z,9.70
2018-12-08T17:56:48.169Z,9.70
2018-12-08T17:59:15.600Z,9.70
2018-12-08T18:01:43.159Z,9.80
2018-12-08T18:04:10.600Z,9.80
2018-12-08T18:06:38.036Z,9.80
2018-12-08T18:09:06.948Z,9.80
2018-12-08T18:11:34.445Z,9.80
2018-12-08T18:14:01.987Z,9.80
2018-12-08T18:16:29.457Z,9.80
2018-12-08T18:18:56.916Z,9.90
2018-12-08T18:21:24.552Z,9.90
2018-12-08T18:23:52.097Z,9.90
2018-12-08T18:26:19.547Z,9.90
2018-12-08T18:28:47.120Z,10.00
2018-12-08T18:31:14.670Z,10.00
2018-12-08T18:33:42.171Z,10.00
2018-12-08T18:36:09.614Z,10.10
2018-12-08T18:38:37.061Z,10.00
2018-12-08T18:41:04.595Z,10.00
2018-12-08T18:43:32.029Z,9.90
2018-12-08T18:45:59.723Z,9.90
2018-12-08T18:48:27.162Z,9.80
2018-12-08T18:50:54.644Z,9.60
2018-12-08T18:53:22.118Z,9.50
2018-12-08T18:55:49.696Z,9.40
2018-12-08T18:58:17.180Z,9.20
2018-12-08T19:00:44.631Z,9.20
2018-12-08T19:03:12.109Z,9.10
2018-12-08T19:05:39.556Z,9.10
2018-12-08T19:08:07.062Z,9.20
2018-12-08T19:10:34.505Z,9.10
2018-12-08T19:13:01.998Z,9.10
2018-12-08T19:15:29.559Z,9.10
2018-12-08T19:17:56.999Z,9.20
2018-12-08T19:20:24.645Z,9.20
2018-12-08T19:22:52.121Z,9.20
2018-12-08T19:25:19.575Z,9.20
2018-12-08T19:27:47.066Z,9.20
2018-12-08T19:30:14.587Z,9.20
2018-12-08T19:32:42.043Z,9.20
2018-12-08T19:35:09.484Z,9.10
2018-12-08T19:37:37.004Z,9.00
2018-12-08T19:40:05.272Z,9.00
2018-12-08T19:42:32.795Z,8.90
2018-12-08T19:45:00.320Z,8.90
2018-12-08T19:47:27.773Z,8.90
2018-12-08T19:49:55.246Z,8.90
2018-12-08T19:52:22.690Z,8.90
2018-12-08T19:54:50.204Z,8.90
2018-12-08T19:57:17.642Z,8.90
2018-12-08T19:59:45.129Z,9.00
2018-12-08T20:02:12.594Z,9.00
2018-12-08T20:04:40.180Z,9.00
2018-12-08T20:07:07.654Z,8.90
2018-12-08T20:09:35.111Z,8.90
2018-12-08T20:14:22.298Z,8.90
2018-12-08T20:16:49.852Z,8.90
2018-12-08T20:19:17.313Z,8.90
2018-12-08T20:21:44.756Z,8.90
2018-12-08T20:24:12.323Z,9.00
2018-12-08T20:26:39.901Z,9.00
2018-12-08T20:29:07.437Z,9.00
2018-12-08T20:31:34.916Z,9.00
2018-12-08T20:34:02.471Z,9.00
2018-12-08T20:36:30.024Z,9.00
2018-12-08T20:38:57.478Z,9.10
2018-12-08T20:41:24.954Z,9.10
2018-12-08T20:43:52.492Z,9.10
2018-12-08T20:46:19.969Z,9.10
2018-12-08T20:48:47.513Z,9.10
2018-12-08T20:51:15.078Z,9.10
2018-12-08T20:53:42.533Z,9.10
2018-12-08T20:56:09.989Z,9.10
2018-12-08T20:58:37.553Z,9.10
2018-12-08T21:01:05.098Z,9.20
2018-12-08T21:03:32.563Z,9.10
2018-12-08T21:06:00.143Z,9.10
2018-12-08T21:08:27.690Z,9.10
2018-12-08T21:10:55.261Z,9.20
2018-12-08T21:13:22.814Z,9.20
2018-12-08T21:15:50.357Z,9.20
2018-12-08T21:18:17.882Z,9.20
2018-12-08T21:20:45.474Z,9.20
2018-12-08T21:23:13.051Z,9.20
2018-12-08T21:25:40.604Z,9.20
2018-12-08T21:28:08.074Z,9.20
2018-12-08T21:30:35.634Z,9.20
2018-12-08T21:33:03.191Z,9.30
2018-12-08T21:35:30.736Z,9.30
2018-12-08T21:37:58.205Z,9.30
2018-12-08T21:40:26.004Z,9.30
2018-12-08T21:42:53.527Z,9.30
2018-12-08T21:45:21.089Z,9.30
2018-12-08T21:47:48.635Z,9.30
2018-12-08T21:50:16.196Z,9.30
2018-12-08T21:52:43.755Z,9.30
2018-12-08T21:55:11.332Z,9.30
2018-12-08T21:57:38.877Z,9.30
2018-12-08T22:00:07.971Z,9.30
2018-12-08T22:02:35.532Z,9.20
2018-12-08T22:05:03.112Z,9.10
2018-12-08T22:07:30.652Z,9.10
2018-12-08T22:09:58.128Z,9.10
2018-12-08T22:12:25.663Z,9.10
2018-12-08T22:14:57.606Z,9.10
2018-12-08T22:17:25.296Z,9.20
2018-12-08T22:19:52.862Z,9.20
2018-12-08T22:22:20.430Z,9.20
2018-12-08T22:24:47.906Z,9.20
2018-12-08T22:27:15.432Z,9.30
2018-12-08T22:29:42.883Z,9.30
2018-12-08T22:32:10.339Z,9.40
2018-12-08T22:34:37.863Z,9.40
2018-12-08T22:37:05.482Z,9.40
2018-12-08T22:39:32.987Z,9.50
2018-12-08T22:42:00.474Z,9.50
2018-12-08T22:44:27.962Z,9.50
2018-12-08T22:46:55.426Z,9.60
2018-12-08T22:49:22.913Z,9.60
2018-12-08T22:51:50.407Z,9.60
2018-12-08T22:54:17.875Z,9.60
2018-12-08T22:56:45.351Z,9.60
2018-12-08T22:59:12.802Z,9.60
2018-12-08T23:01:40.263Z,9.60
2018-12-08T23:04:07.815Z,9.50
2018-12-08T23:06:34.884Z,9.60
2018-12-08T23:09:01.938Z,9.60
2018-12-08T23:11:29.006Z,9.60
2018-12-08T23:13:56.026Z,9.70
2018-12-08T23:16:23.059Z,9.60
2018-12-08T23:18:50.121Z,9.60
2018-12-08T23:21:17.152Z,9.70
2018-12-08T23:23:44.291Z,9.70
2018-12-08T23:26:11.365Z,9.70
2018-12-08T23:28:38.906Z,9.60
2018-12-08T23:31:06.901Z,9.20
2018-12-08T23:33:34.423Z,8.60
2018-12-08T23:36:01.883Z,8.10
2018-12-08T23:38:29.442Z,7.70
2018-12-08T23:40:56.996Z,7.40
2018-12-08T23:43:24.661Z,7.20
2018-12-08T23:45:52.189Z,7.10
2018-12-08T23:48:19.794Z,7.00
2018-12-08T23:50:47.393Z,7.00
2018-12-08T23:53:14.904Z,7.00
2018-12-08T23:55:42.467Z,7.10
2018-12-08T23:58:10.027Z,7.10
